Ginga Lion — H3RU — position and weather

sailwx.info

Track history (hours):
 
Tides and Currents Weather Stations Pressure Air Temp Water Temp Dewpoint Dewpoint Depression Visibility Wind Speed Wind Dir Waves Ship Positions

Ginga Lion

Last reported at 2017-Dec-14 04:45 UTC. Time now 2017-Dec-18 09:11 UTC.
Position N 23°46' E 122°29'.

Length 160 m; draft 7.4 m.

Type: Tanker. MMSI: 354269000.

Date/timePositionNaut miles runAvg speedWind from/ knotsBaromVisibWave heightAir tempDewpointWater temp
2017-Dec-14 04:45N 23°46' E 122°29'412.9
2017-Dec-14 04:27N 23°50' E 122°30'612.9
2017-Dec-14 04:00N 23°55' E 122°32'713.1
2017-Dec-14 03:31N 24°02' E 122°33'713.0
2017-Dec-14 03:00N 24°08' E 122°35'612.6
2017-Dec-14 02:31N 24°14' E 122°37'612.2
2017-Dec-14 02:01N 24°20' E 122°38'611.8
2017-Dec-14 01:30N 24°26' E 122°39'611.9
2017-Dec-14 01:01N 24°32' E 122°41'612.2
2017-Dec-14 00:31N 24°37' E 122°43'612.6
2017-Dec-14 00:01N 24°43' E 122°45'713.2
2017-Dec-13 23:30N 24°50' E 122°47'612.6
2017-Dec-13 23:01N 24°56' E 122°49'612.6
2017-Dec-13 22:30N 25°02' E 122°51'612.8
2017-Dec-13 22:01N 25°08' E 122°54'713.0
2017-Dec-13 21:30N 25°14' E 122°56'713.1
2017-Dec-13 20:59N 25°20' E 122°59'  
2017-Dec-07 11:04N 31°05' E 122°24'1 8.7
2017-Dec-07 10:58N 31°05' E 122°23'613.4
2017-Dec-07 10:30N 31°07' E 122°16'815.1
2017-Dec-07 09:58N 31°12' E 122°09'612.9
2017-Dec-07 09:30N 31°14' E 122°02'611.7
2017-Dec-07 09:00N 31°15' E 121°55'712.0
2017-Dec-07 08:25N 31°18' E 121°48'7511.0
2017-Dec-07 01:33N 32°00' E 120°35'112.8
2017-Dec-07 01:26N 32°01' E 120°33'613.1
2017-Dec-07 01:00N 32°02' E 120°26'  
2017-Dec-04 05:47N 32°02' E 120°28'412.7
2017-Dec-04 05:30N 32°01' E 120°32'  
Track history (hours):
 
Tides and Currents Weather Stations Pressure Air Temp Water Temp Dewpoint Dewpoint Depression Visibility Wind Speed Wind Dir Waves Ship Positions

Ginga Lion

Last reported at 2017-Dec-14 04:45 UTC. Time now 2017-Dec-18 09:11 UTC.
Position N 23°46' E 122°29'.

Length 160 m; draft 7.4 m.

Type: Tanker. MMSI: 354269000.

Date/timePositionNaut miles runAvg speedWind from/ knotsBaromVisibWave heightAir tempDewpointWater temp
2017-Dec-14 04:45N 23°46' E 122°29'412.9
2017-Dec-14 04:27N 23°50' E 122°30'612.9
2017-Dec-14 04:00N 23°55' E 122°32'713.1
2017-Dec-14 03:31N 24°02' E 122°33'713.0
2017-Dec-14 03:00N 24°08' E 122°35'612.6
2017-Dec-14 02:31N 24°14' E 122°37'612.2
2017-Dec-14 02:01N 24°20' E 122°38'611.8
2017-Dec-14 01:30N 24°26' E 122°39'611.9
2017-Dec-14 01:01N 24°32' E 122°41'612.2
2017-Dec-14 00:31N 24°37' E 122°43'612.6
2017-Dec-14 00:01N 24°43' E 122°45'713.2
2017-Dec-13 23:30N 24°50' E 122°47'612.6
2017-Dec-13 23:01N 24°56' E 122°49'612.6
2017-Dec-13 22:30N 25°02' E 122°51'612.8
2017-Dec-13 22:01N 25°08' E 122°54'713.0
2017-Dec-13 21:30N 25°14' E 122°56'713.1
2017-Dec-13 20:59N 25°20' E 122°59'  
2017-Dec-07 11:04N 31°05' E 122°24'1 8.7
2017-Dec-07 10:58N 31°05' E 122°23'613.4
2017-Dec-07 10:30N 31°07' E 122°16'815.1
2017-Dec-07 09:58N 31°12' E 122°09'612.9
2017-Dec-07 09:30N 31°14' E 122°02'611.7
2017-Dec-07 09:00N 31°15' E 121°55'712.0
2017-Dec-07 08:25N 31°18' E 121°48'7511.0
2017-Dec-07 01:33N 32°00' E 120°35'112.8
2017-Dec-07 01:26N 32°01' E 120°33'613.1
2017-Dec-07 01:00N 32°02' E 120°26'  
2017-Dec-04 05:47N 32°02' E 120°28'412.7
2017-Dec-04 05:30N 32°01' E 120°32'  

Dump ship's entire track history